• Join FlightAware (Why Join?)
  • Login
  • US Flag 
06:33PM EDT


 

Airport Tracker/Info


-or-


 

Live Flight TrackerFlight Track Log ✈ SWA1044 ✈ 12-Apr-2013 ✈ KMCI - KMSY

Flight Track Log - Related Links

Times and Time Zones

All times are in EDT time to prevent confusion due to time zone crossing. See the SWA1044 flight status page for this flight to view local times or setup timezone preferences in your user account.

Time Position Orientation Groundspeed Altitude Reporting Facility
EDT Latitude Longitude Course Direction KTS MPH feet Rate Location/Type
10:01AM 39.3167 -94.8000 270° West 230 265 6,400  Level Kansas City TRACON
10:03AM 39.2367 -94.7972 178° South 294 338 9,700 2,760 Climbing Kansas City Center
10:04AM 39.1469 -94.7697 167° South 343 395 12,500 3,360 Climbing Kansas City Center
10:05AM 39.0319 -94.7331 166° South 377 434 16,600 3,420 Climbing Kansas City Center
10:06AM 38.9303 -94.6989 165° South 390 449 19,800 3,000 Climbing Kansas City Center
10:07AM 38.8028 -94.6583 166° South 422 486 22,900 2,880 Climbing Kansas City Center
10:08AM 38.6914 -94.6231 166° South 428 493 25,700 2,460 Climbing Kansas City Center
10:09AM 38.5592 -94.5800 166° South 438 504 28,100 1,980 Climbing Kansas City Center
10:10AM 38.4411 -94.5414 166° South 455 524 29,900 1,800 Climbing Kansas City Center
10:11AM 38.3206 -94.5028 166° South 464 534 31,800 2,040 Climbing Kansas City Center
10:12AM 38.1881 -94.4167 153° Southeast 475 547 34,100 2,100 Climbing Kansas City Center
10:13AM 38.0747 -94.3422 153° Southeast 479 551 36,200 1,920 Climbing Kansas City Center
10:14AM 37.9481 -94.2575 152° Southeast 464 534 38,100 1,380 Climbing Kansas City Center
10:15AM 37.8403 -94.1856 152° Southeast 456 525 39,000 420 Climbing Kansas City Center
10:16AM 37.7292 -94.1133 153° Southeast 451 519 39,000  Level Kansas City Center
10:17AM 37.6194 -94.0406 152° Southeast 447 514 39,000  Level Kansas City Center
10:18AM 37.5083 -93.9678 153° Southeast 447 514 39,000  Level Kansas City Center
10:19AM 37.3747 -93.8814 153° Southeast 448 516 39,000 240 Level Kansas City Center
10:20AM 37.2622 -93.8086 153° Southeast 451 519 39,500 480 Climbing Kansas City Center
10:21AM 37.1483 -93.7347 153° Southeast 455 524 40,100 720 Climbing Kansas City Center
10:22AM 37.0308 -93.6597 153° Southeast 464 534 41,000 420 Climbing Kansas City Center
10:23AM 36.9158 -93.5853 153° Southeast 465 535 41,000  Level Kansas City Center
10:24AM 36.7978 -93.5106 153° Southeast 469 540 41,000  Level Kansas City Center
10:25AM 36.6819 -93.4386 154° Southeast 467 537 41,000  Level Kansas City Center
10:26AM 36.5661 -93.3658 153° Southeast 466 536 41,000  Level Kansas City Center
10:27AM 36.4511 -93.2931 153° Southeast 465 535 41,000  Level Kansas City Center
10:28AM 36.3117 -93.2056 153° Southeast 464 534 41,000  Level Memphis Center
10:29AM 36.1967 -93.1294 152° Southeast 459 528 41,000  Level Memphis Center
10:30AM 36.0794 -93.0586 154° Southeast 464 534 41,000  Level Memphis Center
10:31AM 35.9661 -92.9883 153° Southeast 464 534 41,000  Level Memphis Center
10:32AM 35.8469 -92.9128 153° Southeast 464 534 41,000  Level Memphis Center
10:33AM 35.7336 -92.8403 153° Southeast 464 534 41,000  Level Memphis Center
10:34AM 35.6181 -92.7756 156° South 464 534 41,000  Level Memphis Center
10:35AM 35.4967 -92.6931 151° Southeast 469 540 41,000  Level Memphis Center
10:36AM 35.3686 -92.6156 154° Southeast 469 540 41,000  Level Memphis Center
10:37AM 35.2531 -92.5464 154° Southeast 469 540 41,000  Level Memphis Center
10:38AM 35.1375 -92.4772 154° Southeast 462 532 41,000  Level Memphis Center
10:39AM 35.0239 -92.4086 154° Southeast 462 532 41,000  Level Memphis Center
10:40AM 34.9103 -92.3450 155° Southeast 462 532 41,000  Level Memphis Center
10:41AM 34.8028 -92.2717 151° Southeast 456 525 41,000  Level Memphis Center
10:42AM 34.6911 -92.2033 153° Southeast 450 518 41,000  Level Memphis Center
10:43AM 34.5794 -92.1406 155° Southeast 443 510 41,000  Level Memphis Center
10:44AM 34.4719 -92.0728 153° Southeast 438 504 41,000  Level Memphis Center
10:45AM 34.3600 -92.0078 154° Southeast 438 504 41,000  Level Memphis Center
10:46AM 34.2483 -91.9403 153° Southeast 443 510 41,000  Level Memphis Center
10:47AM 34.1344 -91.8753 155° Southeast 443 510 41,000  Level Memphis Center
10:48AM 34.0392 -91.8161 153° Southeast 443 510 41,000  Level Memphis Center
10:49AM 33.9250 -91.7492 154° Southeast 443 510 41,000  Level Memphis Center
10:50AM 33.8192 -91.6922 156° South 448 516 41,000  Level Memphis Center
10:51AM 33.6967 -91.6206 154° Southeast 454 522 41,000  Level Memphis Center
10:52AM 33.5703 -91.5439 153° Southeast 461 531 41,000  Level Memphis Center
10:53AM 33.4603 -91.4828 155° Southeast 456 525 41,000  Level Memphis Center
10:54AM 33.3481 -91.4167 154° Southeast 450 518 41,000  Level Memphis Center
10:55AM 33.2381 -91.3508 153° Southeast 445 512 41,000  Level Memphis Center
10:56AM 33.1278 -91.2875 154° Southeast 445 512 41,000  Level Memphis Center
10:57AM 33.0175 -91.2219 154° Southeast 445 512 41,000  Level Memphis Center
10:58AM 32.9033 -91.1589 155° Southeast 445 512 41,000  Level Memphis Center
10:59AM 32.7950 -91.0961 154° Southeast 440 506 41,000  Level Memphis Center
11:00AM 32.6806 -91.0311 154° Southeast 440 506 41,000 -420 Level Memphis Center
11:01AM 32.5681 -90.9686 155° Southeast 440 506 40,200 -900 Descending Memphis Center
11:02AM 32.4578 -90.9039 154° Southeast 440 506 39,300 -960 Descending Memphis Center
11:03AM 32.3475 -90.8417 155° Southeast 440 506 38,300 -1,020 Descending Memphis Center
11:06AM 32.0706 -90.6836 154° Southeast 444 511 35,900 -1,380 Descending Houston Center
11:07AM 31.9592 -90.6231 155° Southeast 441 507 33,600 -2,460 Descending Houston Center
11:08AM 31.8481 -90.5592 154° Southeast 444 511 30,900 -2,460 Descending Houston Center
11:09AM 31.7372 -90.5050 157° South 434 499 28,600 -1,800 Descending Houston Center
11:10AM 31.6272 -90.4775 168° South 407 468 27,200 -1,560 Descending Houston Center
11:11AM 31.4950 -90.4439 168° South 406 467 25,400 -1,680 Descending Houston Center
11:12AM 31.3872 -90.4158 167° South 399 459 23,800 -1,560 Descending Houston Center
11:13AM 31.2803 -90.3900 168° South 394 453 22,300 -1,500 Descending Houston Center
11:14AM 31.1761 -90.3625 167° South 387 445 20,800 -1,500 Descending Houston Center
11:15AM 31.0733 -90.3369 168° South 381 438 19,200 -1,500 Descending Houston Center
11:16AM 30.9717 -90.3114 168° South 375 432 17,700 -1,680 Descending Houston Center
11:17AM 30.8547 -90.2808 167° South 362 417 15,800 -1,740 Descending Houston Center
11:18AM 30.7703 -90.2606 168° South 354 407 14,500 -1,620 Descending Houston Center
11:19AM 30.7069 -90.2436 167° South 343 395 13,400 -1,500 Descending Houston Center
11:19AM 30.6667 -90.2342 169° South 345 397 12,600 -1,500 Descending Houston Center
11:20AM 30.6167 -90.2208 167° South 331 381 11,900 -1,200 Descending Houston Center
11:20AM 30.5811 -90.2133 170° South 322 371 11,400 -1,140 Descending Houston Center
11:21AM 30.5325 -90.2072 174° South 295 339 10,800 -1,500 Descending Houston Center
11:21AM 30.4989 -90.2047 176° South 301 346 9,900 -1,980 Descending Houston Center
11:22AM 30.4508 -90.1986 174° South 295 339 8,800 -2,040 Descending Houston Center
11:23AM 30.3989 -90.1922 174° South 301 346 7,800 -1,380 Descending Houston Center
11:23AM 30.3586 -90.1878 175° South 306 352 7,400 -1,080 Descending Houston Center
11:24AM 30.3175 -90.1819 173° South 300 345 6,700 -1,200 Descending Houston Center
11:24AM 30.2789 -90.1792 176° South 286 329 6,200 -1,380 Descending Houston Center
11:25AM 30.2417 -90.1722 171° South 287 330 5,300 -1,680 Descending Houston Center
11:25AM 30.2033 -90.1678 174° South 275 316 4,500 -1,080 Descending Houston Center
11:26AM 30.1650 -90.1639 175° South 281 323 4,200 -540 Descending Houston Center
11:26AM 30.1278 -90.1589 173° South 263 303 4,000 -240 Descending Houston Center
11:27AM 30.0836 -90.1531 173° South 262 302 4,000  Level Houston Center
11:27AM 30.0647 -90.1494 171° South 223 257 4,000 -300 Level Houston Center
11:28AM 30.0314 -90.1275 150° Southeast 228 262 3,700 -720 Descending Houston Center
11:28AM 30.0142 -90.1300 187° South 187 215 3,300 -1,260 Descending Houston Center
11:29AM 29.9786 -90.1364 189° South 203 234 2,400 -1,320 Descending Houston Center
11:29AM 29.9667 -90.1486 222° Southwest 176 203 2,000 -1,080 Descending Houston Center
11:30AM 29.9731 -90.1794 283° West 180 207 1,300 -1,020 Descending Houston Center
11:30AM 29.9764 -90.1964 283° West 134 154 1,000 -720 Descending Houston Center
11:31AM 29.9825 -90.2214 286° West 152 175 600 -720 Descending Houston Center
11:31AM 29.9861 -90.2367 285° West 129 148 300 -240 Descending Houston Center
11:32AM 29.9931 -90.2614 288° West 148 170 400 120 Climbing Houston Center